hwlogo.jpg (8581 bytes)
Home Your Weather Products Services Weather On Your Site Contact
HW Version Logo
Weather Info
Your Weather (Options)
Canadian Weather
International Weather
Enter your " Place, State", US Zip Code or ICAO:  
Forecast Information Radar Information
Teslin, Canada  Lat: 60.17N, Lon: 132.73W
ICAO Used: CYZW
Current Conditions
Updated: 6:00 PM GMT-7 SUN FEB 18 2018
Sun & Moon Information
Mostly Cloudy
Mostly Cloudy
Temp: -18°C
Humidity: 70%
Wind Speed: W 5 MPH
Barometer: 1027 mb
Dewpoint: -22°C
Heat Index: -18°C
Wind Chill: -24°C
Civil Twilight: 8:38 AM GMT-7 Moon Phase:
Waxing Crescent Moon
Sunrise: 9:22 AM GMT-7
Sunset: 6:47 PM GMT-7
Civil Twilight: 7:30 PM GMT-7
Forecast for Teslin, YK, Canada:
(Forecast based on TAF for )
1200 PM GMT-7 SUN FEB 18 2018
  
AFTERNOON EVENING OVERNIGHT
Fair Fair Fair
ZoneCast:
Dated: 1200 PM GMT-7 SUN FEB 18 2018
Afternoon...Becoming fair with winds from the east at 7 mph.

Evening...Fair with winds from the east at 7 mph.

Overnight...Fair with winds from the east at 7 mph.

Original Encoded TAF:
Dated: 1200 PM GMT-7 SUN FEB 18 2018
2018/02/18 19:00
TAF CYZW 181840Z 1819/1901 VRB03KT P6SM SKC 
      BECMG 1819/1821 08006KT 
      RMK NXT FCST WILL BE ISSUED AT 191845Z